sensor_id;sensor_type;location;lat;lon;timestamp;P1;durP1;ratioP1;P2;durP2;ratioP2
5343;SDS011;2694;48.954;8.928;2023-03-01T00:01:35;20.13;;;10.02;;
5343;SDS011;2694;48.954;8.928;2023-03-01T00:04:02;19.50;;;9.90;;
5343;SDS011;2694;48.954;8.928;2023-03-01T00:06:29;17.83;;;10.00;;
5343;SDS011;2694;48.954;8.928;2023-03-01T00:08:56;19.67;;;9.80;;
5343;SDS011;2694;48.954;8.928;2023-03-01T00:11:25;19.42;;;10.15;;
5343;SDS011;2694;48.954;8.928;2023-03-01T00:13:54;17.30;;;10.38;;
5343;SDS011;2694;48.954;8.928;2023-03-01T00:16:23;17.80;;;9.82;;
5343;SDS011;2694;48.954;8.928;2023-03-01T00:18:51;18.00;;;10.10;;
5343;SDS011;2694;48.954;8.928;2023-03-01T00:21:19;16.75;;;9.57;;
5343;SDS011;2694;48.954;8.928;2023-03-01T00:23:47;14.77;;;9.10;;
5343;SDS011;2694;48.954;8.928;2023-03-01T00:26:15;19.50;;;10.30;;
5343;SDS011;2694;48.954;8.928;2023-03-01T00:28:45;19.98;;;10.75;;
5343;SDS011;2694;48.954;8.928;2023-03-01T00:31:13;18.58;;;10.60;;
5343;SDS011;2694;48.954;8.928;2023-03-01T00:33:41;19.05;;;10.55;;
5343;SDS011;2694;48.954;8.928;2023-03-01T00:36:09;20.70;;;10.40;;
5343;SDS011;2694;48.954;8.928;2023-03-01T00:38:39;20.17;;;10.40;;
5343;SDS011;2694;48.954;8.928;2023-03-01T00:41:08;18.90;;;11.05;;
5343;SDS011;2694;48.954;8.928;2023-03-01T00:43:35;17.60;;;10.25;;
5343;SDS011;2694;48.954;8.928;2023-03-01T00:46:05;20.83;;;10.40;;
5343;SDS011;2694;48.954;8.928;2023-03-01T00:48:33;20.98;;;10.88;;
5343;SDS011;2694;48.954;8.928;2023-03-01T00:51:04;19.92;;;11.25;;
5343;SDS011;2694;48.954;8.928;2023-03-01T00:53:32;18.88;;;10.60;;
5343;SDS011;2694;48.954;8.928;2023-03-01T00:55:59;19.60;;;10.70;;
5343;SDS011;2694;48.954;8.928;2023-03-01T00:58:26;21.42;;;11.57;;
5343;SDS011;2694;48.954;8.928;2023-03-01T01:00:53;22.10;;;11.35;;
5343;SDS011;2694;48.954;8.928;2023-03-01T01:03:22;25.40;;;12.63;;
5343;SDS011;2694;48.954;8.928;2023-03-01T01:05:49;27.98;;;13.23;;
5343;SDS011;2694;48.954;8.928;2023-03-01T01:08:17;23.08;;;11.75;;
5343;SDS011;2694;48.954;8.928;2023-03-01T01:10:44;23.80;;;12.80;;
5343;SDS011;2694;48.954;8.928;2023-03-01T01:13:11;23.15;;;12.32;;
5343;SDS011;2694;48.954;8.928;2023-03-01T01:15:38;28.83;;;13.15;;
5343;SDS011;2694;48.954;8.928;2023-03-01T01:18:06;24.85;;;14.45;;
5343;SDS011;2694;48.954;8.928;2023-03-01T01:20:34;26.33;;;14.20;;
5343;SDS011;2694;48.954;8.928;2023-03-01T01:23:02;23.75;;;13.13;;
5343;SDS011;2694;48.954;8.928;2023-03-01T01:25:33;23.60;;;11.90;;
5343;SDS011;2694;48.954;8.928;2023-03-01T01:28:01;20.58;;;11.32;;
5343;SDS011;2694;48.954;8.928;2023-03-01T01:30:28;20.07;;;11.70;;
5343;SDS011;2694;48.954;8.928;2023-03-01T01:32:54;22.75;;;11.50;;
5343;SDS011;2694;48.954;8.928;2023-03-01T01:35:24;24.97;;;10.23;;
5343;SDS011;2694;48.954;8.928;2023-03-01T01:37:52;21.98;;;10.88;;
5343;SDS011;2694;48.954;8.928;2023-03-01T01:40:19;16.55;;;10.02;;
5343;SDS011;2694;48.954;8.928;2023-03-01T01:42:46;19.90;;;9.23;;
5343;SDS011;2694;48.954;8.928;2023-03-01T01:45:27;20.83;;;10.40;;
5343;SDS011;2694;48.954;8.928;2023-03-01T01:47:57;21.63;;;11.20;;
5343;SDS011;2694;48.954;8.928;2023-03-01T01:50:27;19.63;;;10.50;;
5343;SDS011;2694;48.954;8.928;2023-03-01T01:53:06;20.13;;;10.10;;
5343;SDS011;2694;48.954;8.928;2023-03-01T01:55:36;17.42;;;10.25;;
5343;SDS011;2694;48.954;8.928;2023-03-01T01:58:06;21.88;;;11.02;;
5343;SDS011;2694;48.954;8.928;2023-03-01T02:00:36;20.50;;;10.43;;
5343;SDS011;2694;48.954;8.928;2023-03-01T02:03:06;20.33;;;11.55;;
5343;SDS011;2694;48.954;8.928;2023-03-01T02:05:38;21.05;;;11.50;;
5343;SDS011;2694;48.954;8.928;2023-03-01T02:08:12;20.95;;;10.95;;
5343;SDS011;2694;48.954;8.928;2023-03-01T02:10:42;20.52;;;11.35;;
5343;SDS011;2694;48.954;8.928;2023-03-01T02:13:09;21.67;;;10.88;;
5343;SDS011;2694;48.954;8.928;2023-03-01T02:15:37;19.85;;;11.00;;
5343;SDS011;2694;48.954;8.928;2023-03-01T02:18:06;21.02;;;11.30;;
5343;SDS011;2694;48.954;8.928;2023-03-01T02:20:35;21.23;;;11.77;;
5343;SDS011;2694;48.954;8.928;2023-03-01T02:23:06;24.58;;;11.90;;
5343;SDS011;2694;48.954;8.928;2023-03-01T02:25:37;22.73;;;11.00;;
5343;SDS011;2694;48.954;8.928;2023-03-01T02:28:10;22.50;;;11.27;;
5343;SDS011;2694;48.954;8.928;2023-03-01T02:30:49;19.55;;;11.30;;
5343;SDS011;2694;48.954;8.928;2023-03-01T02:33:35;20.88;;;12.00;;
5343;SDS011;2694;48.954;8.928;2023-03-01T02:36:03;21.45;;;11.52;;
5343;SDS011;2694;48.954;8.928;2023-03-01T02:38:34;22.45;;;11.63;;
5343;SDS011;2694;48.954;8.928;2023-03-01T02:41:01;23.40;;;12.20;;
5343;SDS011;2694;48.954;8.928;2023-03-01T02:43:31;24.10;;;11.20;;
5343;SDS011;2694;48.954;8.928;2023-03-01T02:46:01;22.55;;;11.77;;
5343;SDS011;2694;48.954;8.928;2023-03-01T02:48:38;23.95;;;11.50;;
5343;SDS011;2694;48.954;8.928;2023-03-01T02:51:09;22.98;;;11.93;;
5343;SDS011;2694;48.954;8.928;2023-03-01T02:53:45;21.60;;;11.88;;
5343;SDS011;2694;48.954;8.928;2023-03-01T02:56:19;22.50;;;11.25;;
5343;SDS011;2694;48.954;8.928;2023-03-01T02:58:48;22.65;;;11.23;;
5343;SDS011;2694;48.954;8.928;2023-03-01T03:01:16;21.38;;;11.05;;
5343;SDS011;2694;48.954;8.928;2023-03-01T03:03:44;21.25;;;11.38;;
5343;SDS011;2694;48.954;8.928;2023-03-01T03:06:11;22.93;;;12.63;;
5343;SDS011;2694;48.954;8.928;2023-03-01T03:08:38;23.70;;;11.30;;
5343;SDS011;2694;48.954;8.928;2023-03-01T03:11:05;19.67;;;11.15;;
5343;SDS011;2694;48.954;8.928;2023-03-01T03:13:32;20.15;;;10.77;;
5343;SDS011;2694;48.954;8.928;2023-03-01T03:16:00;22.90;;;11.50;;
5343;SDS011;2694;48.954;8.928;2023-03-01T03:18:29;21.83;;;11.45;;
5343;SDS011;2694;48.954;8.928;2023-03-01T03:20:56;23.58;;;11.07;;
5343;SDS011;2694;48.954;8.928;2023-03-01T03:23:23;21.55;;;11.38;;
5343;SDS011;2694;48.954;8.928;2023-03-01T03:25:50;21.63;;;11.32;;
5343;SDS011;2694;48.954;8.928;2023-03-01T03:28:17;19.98;;;10.50;;
5343;SDS011;2694;48.954;8.928;2023-03-01T03:30:44;21.25;;;11.18;;
5343;SDS011;2694;48.954;8.928;2023-03-01T03:33:13;22.42;;;11.00;;
5343;SDS011;2694;48.954;8.928;2023-03-01T03:35:40;19.33;;;10.88;;
5343;SDS011;2694;48.954;8.928;2023-03-01T03:38:09;23.40;;;12.00;;
5343;SDS011;2694;48.954;8.928;2023-03-01T03:40:43;20.60;;;10.60;;
5343;SDS011;2694;48.954;8.928;2023-03-01T03:43:12;19.63;;;10.60;;
5343;SDS011;2694;48.954;8.928;2023-03-01T03:45:40;22.30;;;11.40;;
5343;SDS011;2694;48.954;8.928;2023-03-01T03:48:08;21.70;;;11.23;;
5343;SDS011;2694;48.954;8.928;2023-03-01T03:50:38;23.00;;;11.55;;
5343;SDS011;2694;48.954;8.928;2023-03-01T03:53:06;19.40;;;11.20;;
5343;SDS011;2694;48.954;8.928;2023-03-01T03:55:34;19.15;;;10.45;;
5343;SDS011;2694;48.954;8.928;2023-03-01T03:58:04;18.88;;;9.93;;
5343;SDS011;2694;48.954;8.928;2023-03-01T04:00:35;23.33;;;11.00;;
5343;SDS011;2694;48.954;8.928;2023-03-01T04:03:03;19.50;;;10.43;;
5343;SDS011;2694;48.954;8.928;2023-03-01T04:05:31;23.23;;;11.88;;
5343;SDS011;2694;48.954;8.928;2023-03-01T04:07:59;22.80;;;12.37;;
5343;SDS011;2694;48.954;8.928;2023-03-01T04:10:32;21.48;;;10.90;;
5343;SDS011;2694;48.954;8.928;2023-03-01T04:13:01;22.67;;;12.40;;
5343;SDS011;2694;48.954;8.928;2023-03-01T04:15:28;26.52;;;12.27;;
5343;SDS011;2694;48.954;8.928;2023-03-01T04:17:57;24.83;;;12.43;;
5343;SDS011;2694;48.954;8.928;2023-03-01T04:20:26;28.15;;;13.38;;
5343;SDS011;2694;48.954;8.928;2023-03-01T04:22:57;28.20;;;14.00;;
5343;SDS011;2694;48.954;8.928;2023-03-01T04:25:26;24.80;;;13.23;;
5343;SDS011;2694;48.954;8.928;2023-03-01T04:27:53;25.48;;;12.32;;
5343;SDS011;2694;48.954;8.928;2023-03-01T04:30:20;23.80;;;12.05;;
5343;SDS011;2694;48.954;8.928;2023-03-01T04:32:50;21.60;;;12.50;;
5343;SDS011;2694;48.954;8.928;2023-03-01T04:35:17;21.67;;;13.13;;
5343;SDS011;2694;48.954;8.928;2023-03-01T04:37:44;23.75;;;13.10;;
5343;SDS011;2694;48.954;8.928;2023-03-01T04:40:11;20.45;;;12.45;;
5343;SDS011;2694;48.954;8.928;2023-03-01T04:42:42;25.55;;;12.95;;
5343;SDS011;2694;48.954;8.928;2023-03-01T04:45:09;25.00;;;12.60;;
5343;SDS011;2694;48.954;8.928;2023-03-01T04:47:39;24.00;;;12.07;;
5343;SDS011;2694;48.954;8.928;2023-03-01T04:50:08;23.25;;;12.15;;
5343;SDS011;2694;48.954;8.928;2023-03-01T04:52:36;22.80;;;12.00;;
5343;SDS011;2694;48.954;8.928;2023-03-01T04:55:03;21.05;;;11.63;;
5343;SDS011;2694;48.954;8.928;2023-03-01T04:57:32;21.45;;;11.55;;
5343;SDS011;2694;48.954;8.928;2023-03-01T05:00:00;22.42;;;11.45;;
5343;SDS011;2694;48.954;8.928;2023-03-01T05:02:39;19.40;;;10.93;;
5343;SDS011;2694;48.954;8.928;2023-03-01T05:05:06;22.45;;;12.02;;
5343;SDS011;2694;48.954;8.928;2023-03-01T05:07:33;18.80;;;10.60;;
5343;SDS011;2694;48.954;8.928;2023-03-01T05:10:00;20.85;;;11.50;;
5343;SDS011;2694;48.954;8.928;2023-03-01T05:12:27;22.52;;;11.02;;
5343;SDS011;2694;48.954;8.928;2023-03-01T05:14:54;21.08;;;11.07;;
5343;SDS011;2694;48.954;8.928;2023-03-01T05:17:22;21.33;;;10.95;;
5343;SDS011;2694;48.954;8.928;2023-03-01T05:19:49;21.25;;;11.30;;
5343;SDS011;2694;48.954;8.928;2023-03-01T05:22:16;20.48;;;10.75;;
5343;SDS011;2694;48.954;8.928;2023-03-01T05:24:44;21.05;;;11.60;;
5343;SDS011;2694;48.954;8.928;2023-03-01T05:27:11;25.30;;;11.75;;
5343;SDS011;2694;48.954;8.928;2023-03-01T05:29:38;22.10;;;12.13;;
5343;SDS011;2694;48.954;8.928;2023-03-01T05:32:05;21.63;;;11.60;;
5343;SDS011;2694;48.954;8.928;2023-03-01T05:34:35;22.63;;;11.45;;
5343;SDS011;2694;48.954;8.928;2023-03-01T05:37:03;22.88;;;11.88;;
5343;SDS011;2694;48.954;8.928;2023-03-01T05:39:30;20.40;;;11.15;;
5343;SDS011;2694;48.954;8.928;2023-03-01T05:41:58;22.60;;;10.70;;
5343;SDS011;2694;48.954;8.928;2023-03-01T05:44:26;23.20;;;11.45;;
5343;SDS011;2694;48.954;8.928;2023-03-01T05:46:54;19.48;;;11.30;;
5343;SDS011;2694;48.954;8.928;2023-03-01T05:49:21;23.67;;;11.20;;
5343;SDS011;2694;48.954;8.928;2023-03-01T05:51:51;22.40;;;11.70;;
5343;SDS011;2694;48.954;8.928;2023-03-01T05:54:19;19.95;;;10.60;;
5343;SDS011;2694;48.954;8.928;2023-03-01T05:56:46;25.60;;;11.57;;
5343;SDS011;2694;48.954;8.928;2023-03-01T05:59:13;20.48;;;11.50;;
5343;SDS011;2694;48.954;8.928;2023-03-01T06:01:41;25.98;;;13.00;;
5343;SDS011;2694;48.954;8.928;2023-03-01T06:04:08;28.15;;;13.10;;
5343;SDS011;2694;48.954;8.928;2023-03-01T06:06:36;28.35;;;13.38;;
5343;SDS011;2694;48.954;8.928;2023-03-01T06:09:05;24.75;;;12.88;;
5343;SDS011;2694;48.954;8.928;2023-03-01T06:11:34;24.40;;;12.27;;
5343;SDS011;2694;48.954;8.928;2023-03-01T06:14:01;24.00;;;13.23;;
5343;SDS011;2694;48.954;8.928;2023-03-01T06:16:28;28.50;;;13.43;;
5343;SDS011;2694;48.954;8.928;2023-03-01T06:18:55;26.87;;;13.57;;
5343;SDS011;2694;48.954;8.928;2023-03-01T06:21:22;23.42;;;12.55;;
5343;SDS011;2694;48.954;8.928;2023-03-01T06:23:49;26.83;;;12.90;;
5343;SDS011;2694;48.954;8.928;2023-03-01T06:26:18;30.98;;;16.10;;
5343;SDS011;2694;48.954;8.928;2023-03-01T06:28:45;31.13;;;16.17;;
5343;SDS011;2694;48.954;8.928;2023-03-01T06:31:12;26.65;;;14.98;;
5343;SDS011;2694;48.954;8.928;2023-03-01T06:33:39;25.98;;;14.35;;
5343;SDS011;2694;48.954;8.928;2023-03-01T06:36:06;31.20;;;15.20;;
5343;SDS011;2694;48.954;8.928;2023-03-01T06:38:35;28.10;;;16.30;;
5343;SDS011;2694;48.954;8.928;2023-03-01T06:41:02;25.80;;;15.10;;
5343;SDS011;2694;48.954;8.928;2023-03-01T06:43:30;26.70;;;14.90;;
5343;SDS011;2694;48.954;8.928;2023-03-01T06:45:57;28.15;;;13.70;;
5343;SDS011;2694;48.954;8.928;2023-03-01T06:48:24;27.87;;;13.80;;
5343;SDS011;2694;48.954;8.928;2023-03-01T06:50:51;30.73;;;13.52;;
5343;SDS011;2694;48.954;8.928;2023-03-01T06:53:18;26.00;;;13.18;;
5343;SDS011;2694;48.954;8.928;2023-03-01T06:55:44;27.00;;;13.65;;
5343;SDS011;2694;48.954;8.928;2023-03-01T06:58:11;23.60;;;12.40;;
5343;SDS011;2694;48.954;8.928;2023-03-01T07:00:40;28.67;;;14.57;;
5343;SDS011;2694;48.954;8.928;2023-03-01T07:03:08;26.27;;;13.80;;
5343;SDS011;2694;48.954;8.928;2023-03-01T07:05:35;26.27;;;13.52;;
5343;SDS011;2694;48.954;8.928;2023-03-01T07:08:01;26.27;;;13.32;;
5343;SDS011;2694;48.954;8.928;2023-03-01T07:10:28;26.23;;;14.10;;
5343;SDS011;2694;48.954;8.928;2023-03-01T07:12:56;27.60;;;13.90;;
5343;SDS011;2694;48.954;8.928;2023-03-01T07:15:23;28.55;;;15.60;;
5343;SDS011;2694;48.954;8.928;2023-03-01T07:17:52;28.40;;;14.07;;
5343;SDS011;2694;48.954;8.928;2023-03-01T07:20:19;29.87;;;15.80;;
5343;SDS011;2694;48.954;8.928;2023-03-01T07:22:49;31.45;;;15.68;;
5343;SDS011;2694;48.954;8.928;2023-03-01T07:25:16;31.70;;;16.05;;
5343;SDS011;2694;48.954;8.928;2023-03-01T07:27:43;30.08;;;15.05;;
5343;SDS011;2694;48.954;8.928;2023-03-01T07:30:14;34.63;;;15.10;;
5343;SDS011;2694;48.954;8.928;2023-03-01T07:32:42;34.40;;;15.80;;
5343;SDS011;2694;48.954;8.928;2023-03-01T07:35:11;30.42;;;15.73;;
5343;SDS011;2694;48.954;8.928;2023-03-01T07:37:39;34.88;;;16.30;;
5343;SDS011;2694;48.954;8.928;2023-03-01T07:40:07;27.15;;;15.05;;
5343;SDS011;2694;48.954;8.928;2023-03-01T07:42:35;27.90;;;15.68;;
5343;SDS011;2694;48.954;8.928;2023-03-01T07:45:02;32.17;;;15.68;;
5343;SDS011;2694;48.954;8.928;2023-03-01T07:47:29;28.70;;;15.25;;
5343;SDS011;2694;48.954;8.928;2023-03-01T07:49:56;28.33;;;15.05;;
5343;SDS011;2694;48.954;8.928;2023-03-01T07:52:24;27.00;;;13.93;;
5343;SDS011;2694;48.954;8.928;2023-03-01T07:54:51;27.50;;;14.80;;
5343;SDS011;2694;48.954;8.928;2023-03-01T07:57:18;28.00;;;14.63;;
5343;SDS011;2694;48.954;8.928;2023-03-01T07:59:45;28.07;;;14.70;;
5343;SDS011;2694;48.954;8.928;2023-03-01T08:02:12;30.83;;;15.57;;
5343;SDS011;2694;48.954;8.928;2023-03-01T08:04:40;27.27;;;15.57;;
5343;SDS011;2694;48.954;8.928;2023-03-01T08:07:07;31.20;;;16.00;;
5343;SDS011;2694;48.954;8.928;2023-03-01T08:09:35;28.10;;;14.60;;
5343;SDS011;2694;48.954;8.928;2023-03-01T08:12:02;31.20;;;15.55;;
5343;SDS011;2694;48.954;8.928;2023-03-01T08:14:30;29.27;;;14.57;;
5343;SDS011;2694;48.954;8.928;2023-03-01T08:16:57;29.25;;;14.95;;
5343;SDS011;2694;48.954;8.928;2023-03-01T08:19:24;31.05;;;14.70;;
5343;SDS011;2694;48.954;8.928;2023-03-01T08:21:53;27.88;;;13.95;;
5343;SDS011;2694;48.954;8.928;2023-03-01T08:24:20;26.33;;;14.82;;
5343;SDS011;2694;48.954;8.928;2023-03-01T08:26:49;27.80;;;14.13;;
5343;SDS011;2694;48.954;8.928;2023-03-01T08:29:16;28.23;;;15.13;;
5343;SDS011;2694;48.954;8.928;2023-03-01T08:31:43;31.25;;;15.93;;
5343;SDS011;2694;48.954;8.928;2023-03-01T08:34:10;34.22;;;15.60;;
5343;SDS011;2694;48.954;8.928;2023-03-01T08:36:39;31.63;;;15.32;;
5343;SDS011;2694;48.954;8.928;2023-03-01T08:39:07;28.63;;;14.33;;
5343;SDS011;2694;48.954;8.928;2023-03-01T08:41:36;28.38;;;14.85;;
5343;SDS011;2694;48.954;8.928;2023-03-01T08:44:04;32.00;;;14.57;;
5343;SDS011;2694;48.954;8.928;2023-03-01T08:46:32;34.33;;;14.43;;
5343;SDS011;2694;48.954;8.928;2023-03-01T08:49:03;29.33;;;15.80;;
5343;SDS011;2694;48.954;8.928;2023-03-01T08:51:32;26.38;;;15.20;;
5343;SDS011;2694;48.954;8.928;2023-03-01T08:54:01;31.02;;;15.20;;
5343;SDS011;2694;48.954;8.928;2023-03-01T08:56:28;23.67;;;13.40;;
5343;SDS011;2694;48.954;8.928;2023-03-01T08:58:55;29.02;;;15.15;;
5343;SDS011;2694;48.954;8.928;2023-03-01T09:01:23;30.10;;;14.98;;
5343;SDS011;2694;48.954;8.928;2023-03-01T09:03:50;30.63;;;15.18;;
5343;SDS011;2694;48.954;8.928;2023-03-01T09:06:17;28.40;;;16.13;;
5343;SDS011;2694;48.954;8.928;2023-03-01T09:08:45;24.40;;;14.17;;
5343;SDS011;2694;48.954;8.928;2023-03-01T09:11:14;27.75;;;14.30;;
5343;SDS011;2694;48.954;8.928;2023-03-01T09:13:43;25.40;;;14.27;;
5343;SDS011;2694;48.954;8.928;2023-03-01T09:16:11;29.17;;;15.45;;
5343;SDS011;2694;48.954;8.928;2023-03-01T09:18:40;31.10;;;15.20;;
5343;SDS011;2694;48.954;8.928;2023-03-01T09:21:08;29.37;;;15.60;;
5343;SDS011;2694;48.954;8.928;2023-03-01T09:23:37;28.60;;;14.65;;
5343;SDS011;2694;48.954;8.928;2023-03-01T09:26:05;26.92;;;14.50;;
5343;SDS011;2694;48.954;8.928;2023-03-01T09:28:34;28.63;;;13.70;;
5343;SDS011;2694;48.954;8.928;2023-03-01T09:31:01;26.23;;;14.90;;
5343;SDS011;2694;48.954;8.928;2023-03-01T09:33:29;26.92;;;14.10;;
5343;SDS011;2694;48.954;8.928;2023-03-01T09:35:59;28.90;;;14.77;;
5343;SDS011;2694;48.954;8.928;2023-03-01T09:38:29;28.60;;;14.00;;
5343;SDS011;2694;48.954;8.928;2023-03-01T09:40:56;23.55;;;12.68;;
5343;SDS011;2694;48.954;8.928;2023-03-01T09:43:25;34.45;;;15.50;;
5343;SDS011;2694;48.954;8.928;2023-03-01T09:45:58;29.30;;;14.38;;
5343;SDS011;2694;48.954;8.928;2023-03-01T09:48:30;25.48;;;13.73;;
5343;SDS011;2694;48.954;8.928;2023-03-01T09:51:07;28.05;;;14.77;;
5343;SDS011;2694;48.954;8.928;2023-03-01T09:53:40;27.70;;;14.20;;
5343;SDS011;2694;48.954;8.928;2023-03-01T09:56:11;24.88;;;14.55;;
5343;SDS011;2694;48.954;8.928;2023-03-01T09:58:46;28.85;;;14.52;;
5343;SDS011;2694;48.954;8.928;2023-03-01T10:01:23;28.48;;;14.75;;
5343;SDS011;2694;48.954;8.928;2023-03-01T10:06:51;26.80;;;14.73;;
5343;SDS011;2694;48.954;8.928;2023-03-01T10:09:27;23.67;;;13.65;;
5343;SDS011;2694;48.954;8.928;2023-03-01T10:11:59;24.48;;;13.20;;
5343;SDS011;2694;48.954;8.928;2023-03-01T10:14:32;26.13;;;14.23;;
5343;SDS011;2694;48.954;8.928;2023-03-01T10:17:03;23.20;;;14.67;;
5343;SDS011;2694;48.954;8.928;2023-03-01T10:19:32;23.10;;;13.98;;
5343;SDS011;2694;48.954;8.928;2023-03-01T10:22:07;26.75;;;14.48;;
5343;SDS011;2694;48.954;8.928;2023-03-01T10:24:41;25.98;;;14.02;;
5343;SDS011;2694;48.954;8.928;2023-03-01T10:27:09;25.58;;;14.10;;
5343;SDS011;2694;48.954;8.928;2023-03-01T10:29:44;25.35;;;14.38;;
5343;SDS011;2694;48.954;8.928;2023-03-01T10:32:15;25.02;;;14.35;;
5343;SDS011;2694;48.954;8.928;2023-03-01T10:34:44;27.25;;;14.02;;
5343;SDS011;2694;48.954;8.928;2023-03-01T10:37:13;25.47;;;14.00;;
5343;SDS011;2694;48.954;8.928;2023-03-01T10:39:57;27.98;;;13.85;;
5343;SDS011;2694;48.954;8.928;2023-03-01T10:42:31;23.42;;;13.50;;
5343;SDS011;2694;48.954;8.928;2023-03-01T10:45:14;23.77;;;13.75;;
5343;SDS011;2694;48.954;8.928;2023-03-01T10:47:43;23.67;;;12.88;;
5343;SDS011;2694;48.954;8.928;2023-03-01T10:50:17;24.57;;;13.53;;
5343;SDS011;2694;48.954;8.928;2023-03-01T10:52:57;23.63;;;14.07;;
5343;SDS011;2694;48.954;8.928;2023-03-01T10:55:26;27.00;;;13.73;;
5343;SDS011;2694;48.954;8.928;2023-03-01T10:58:06;23.80;;;13.80;;
5343;SDS011;2694;48.954;8.928;2023-03-01T11:00:45;28.77;;;13.82;;
5343;SDS011;2694;48.954;8.928;2023-03-01T11:03:14;24.33;;;14.07;;
5343;SDS011;2694;48.954;8.928;2023-03-01T11:05:51;26.10;;;14.30;;
5343;SDS011;2694;48.954;8.928;2023-03-01T11:08:33;23.40;;;13.65;;
5343;SDS011;2694;48.954;8.928;2023-03-01T11:11:06;24.45;;;13.63;;
5343;SDS011;2694;48.954;8.928;2023-03-01T11:13:47;28.88;;;13.60;;
5343;SDS011;2694;48.954;8.928;2023-03-01T11:16:22;23.43;;;13.10;;
5343;SDS011;2694;48.954;8.928;2023-03-01T11:18:55;28.08;;;14.30;;
5343;SDS011;2694;48.954;8.928;2023-03-01T11:21:23;26.13;;;14.73;;
5343;SDS011;2694;48.954;8.928;2023-03-01T11:23:53;27.90;;;14.65;;
5343;SDS011;2694;48.954;8.928;2023-03-01T11:26:21;23.30;;;13.13;;
5343;SDS011;2694;48.954;8.928;2023-03-01T11:28:49;30.52;;;14.32;;
5343;SDS011;2694;48.954;8.928;2023-03-01T11:31:20;23.55;;;13.98;;
5343;SDS011;2694;48.954;8.928;2023-03-01T11:33:50;24.42;;;13.40;;
5343;SDS011;2694;48.954;8.928;2023-03-01T11:36:25;26.88;;;13.35;;
5343;SDS011;2694;48.954;8.928;2023-03-01T11:39:14;22.95;;;13.60;;
5343;SDS011;2694;48.954;8.928;2023-03-01T11:41:50;25.50;;;14.18;;
5343;SDS011;2694;48.954;8.928;2023-03-01T11:44:26;28.65;;;13.60;;
5343;SDS011;2694;48.954;8.928;2023-03-01T11:47:18;25.60;;;13.75;;
5343;SDS011;2694;48.954;8.928;2023-03-01T11:49:59;27.67;;;14.60;;
5343;SDS011;2694;48.954;8.928;2023-03-01T11:52:37;23.98;;;13.45;;
5343;SDS011;2694;48.954;8.928;2023-03-01T11:55:26;28.25;;;14.55;;
5343;SDS011;2694;48.954;8.928;2023-03-01T11:58:05;24.60;;;14.05;;
5343;SDS011;2694;48.954;8.928;2023-03-01T12:00:46;25.73;;;13.77;;
5343;SDS011;2694;48.954;8.928;2023-03-01T12:03:38;27.38;;;14.52;;
5343;SDS011;2694;48.954;8.928;2023-03-01T12:06:24;28.35;;;14.60;;
5343;SDS011;2694;48.954;8.928;2023-03-01T12:09:12;27.02;;;14.02;;
5343;SDS011;2694;48.954;8.928;2023-03-01T12:11:56;26.13;;;13.33;;
5343;SDS011;2694;48.954;8.928;2023-03-01T12:14:47;24.05;;;13.43;;
5343;SDS011;2694;48.954;8.928;2023-03-01T12:20:26;23.77;;;14.32;;
5343;SDS011;2694;48.954;8.928;2023-03-01T12:23:07;26.98;;;13.90;;
5343;SDS011;2694;48.954;8.928;2023-03-01T12:25:51;27.15;;;14.48;;
5343;SDS011;2694;48.954;8.928;2023-03-01T12:31:25;25.55;;;13.93;;
5343;SDS011;2694;48.954;8.928;2023-03-01T12:34:13;25.42;;;14.35;;
5343;SDS011;2694;48.954;8.928;2023-03-01T12:37:04;24.40;;;13.60;;
5343;SDS011;2694;48.954;8.928;2023-03-01T12:39:56;25.17;;;14.10;;
5343;SDS011;2694;48.954;8.928;2023-03-01T12:42:42;25.45;;;13.95;;
5343;SDS011;2694;48.954;8.928;2023-03-01T12:45:34;26.13;;;14.32;;
5343;SDS011;2694;48.954;8.928;2023-03-01T12:48:22;25.08;;;14.20;;
5343;SDS011;2694;48.954;8.928;2023-03-01T12:50:57;23.33;;;13.80;;
5343;SDS011;2694;48.954;8.928;2023-03-01T12:53:28;24.92;;;13.57;;
5343;SDS011;2694;48.954;8.928;2023-03-01T12:55:58;24.15;;;13.52;;
5343;SDS011;2694;48.954;8.928;2023-03-01T12:58:28;26.00;;;14.10;;
5343;SDS011;2694;48.954;8.928;2023-03-01T13:01:05;27.88;;;14.93;;
5343;SDS011;2694;48.954;8.928;2023-03-01T13:04:02;24.80;;;14.43;;
5343;SDS011;2694;48.954;8.928;2023-03-01T13:06:52;23.92;;;14.05;;
5343;SDS011;2694;48.954;8.928;2023-03-01T13:09:30;24.27;;;14.18;;
5343;SDS011;2694;48.954;8.928;2023-03-01T13:15:13;26.98;;;14.45;;
5343;SDS011;2694;48.954;8.928;2023-03-01T13:17:53;27.95;;;15.50;;
5343;SDS011;2694;48.954;8.928;2023-03-01T13:20:23;26.50;;;13.90;;
5343;SDS011;2694;48.954;8.928;2023-03-01T13:23:00;24.50;;;13.70;;
5343;SDS011;2694;48.954;8.928;2023-03-01T13:25:29;26.55;;;14.65;;
5343;SDS011;2694;48.954;8.928;2023-03-01T13:28:32;30.03;;;14.90;;
5343;SDS011;2694;48.954;8.928;2023-03-01T13:31:07;26.80;;;14.70;;
5343;SDS011;2694;48.954;8.928;2023-03-01T13:33:40;22.10;;;13.68;;
5343;SDS011;2694;48.954;8.928;2023-03-01T13:36:08;27.38;;;14.00;;
5343;SDS011;2694;48.954;8.928;2023-03-01T13:38:41;27.15;;;14.07;;
5343;SDS011;2694;48.954;8.928;2023-03-01T13:41:12;23.80;;;13.40;;
5343;SDS011;2694;48.954;8.928;2023-03-01T13:43:41;29.60;;;13.60;;
5343;SDS011;2694;48.954;8.928;2023-03-01T13:46:10;28.73;;;14.25;;
5343;SDS011;2694;48.954;8.928;2023-03-01T13:48:42;25.23;;;14.40;;
5343;SDS011;2694;48.954;8.928;2023-03-01T13:51:12;26.00;;;13.60;;
5343;SDS011;2694;48.954;8.928;2023-03-01T13:53:41;24.90;;;14.48;;
5343;SDS011;2694;48.954;8.928;2023-03-01T13:56:11;31.42;;;14.50;;
5343;SDS011;2694;48.954;8.928;2023-03-01T13:58:48;20.98;;;13.10;;
5343;SDS011;2694;48.954;8.928;2023-03-01T14:01:22;24.47;;;13.90;;
5343;SDS011;2694;48.954;8.928;2023-03-01T14:03:51;26.25;;;14.30;;
5343;SDS011;2694;48.954;8.928;2023-03-01T14:06:19;31.20;;;13.38;;
5343;SDS011;2694;48.954;8.928;2023-03-01T14:08:48;26.05;;;14.30;;
5343;SDS011;2694;48.954;8.928;2023-03-01T14:11:30;29.00;;;14.90;;
5343;SDS011;2694;48.954;8.928;2023-03-01T14:14:24;23.90;;;13.25;;
5343;SDS011;2694;48.954;8.928;2023-03-01T14:17:25;24.55;;;14.07;;
5343;SDS011;2694;48.954;8.928;2023-03-01T14:20:12;27.27;;;14.33;;
5343;SDS011;2694;48.954;8.928;2023-03-01T14:22:43;23.58;;;13.63;;
5343;SDS011;2694;48.954;8.928;2023-03-01T14:25:17;28.25;;;13.40;;
5343;SDS011;2694;48.954;8.928;2023-03-01T14:27:50;29.27;;;13.53;;
5343;SDS011;2694;48.954;8.928;2023-03-01T14:30:23;22.03;;;12.70;;
5343;SDS011;2694;48.954;8.928;2023-03-01T14:32:53;23.85;;;13.63;;
5343;SDS011;2694;48.954;8.928;2023-03-01T14:35:22;25.88;;;13.30;;
5343;SDS011;2694;48.954;8.928;2023-03-01T14:37:51;24.08;;;13.13;;
5343;SDS011;2694;48.954;8.928;2023-03-01T14:40:22;23.38;;;13.63;;
5343;SDS011;2694;48.954;8.928;2023-03-01T14:42:51;24.77;;;13.75;;
5343;SDS011;2694;48.954;8.928;2023-03-01T14:45:19;24.05;;;13.38;;
5343;SDS011;2694;48.954;8.928;2023-03-01T14:47:48;28.58;;;13.77;;
5343;SDS011;2694;48.954;8.928;2023-03-01T14:50:19;23.02;;;13.65;;
5343;SDS011;2694;48.954;8.928;2023-03-01T14:52:50;26.30;;;13.50;;
5343;SDS011;2694;48.954;8.928;2023-03-01T14:55:20;22.10;;;12.48;;
5343;SDS011;2694;48.954;8.928;2023-03-01T14:57:51;25.92;;;13.30;;
5343;SDS011;2694;48.954;8.928;2023-03-01T15:00:20;26.23;;;13.07;;
5343;SDS011;2694;48.954;8.928;2023-03-01T15:02:51;21.25;;;12.70;;
5343;SDS011;2694;48.954;8.928;2023-03-01T15:05:22;22.20;;;13.60;;
5343;SDS011;2694;48.954;8.928;2023-03-01T15:07:54;25.55;;;13.32;;
5343;SDS011;2694;48.954;8.928;2023-03-01T15:10:23;22.23;;;12.88;;
5343;SDS011;2694;48.954;8.928;2023-03-01T15:12:51;28.40;;;15.07;;
5343;SDS011;2694;48.954;8.928;2023-03-01T15:15:19;22.23;;;12.55;;
5343;SDS011;2694;48.954;8.928;2023-03-01T15:17:52;22.80;;;12.60;;
5343;SDS011;2694;48.954;8.928;2023-03-01T15:20:22;23.13;;;12.82;;
5343;SDS011;2694;48.954;8.928;2023-03-01T15:22:52;22.40;;;12.80;;